Aéroport Valenciennes-Denain

LFAV · North, Hauts-de-France, France

METAR history LFAV · Aéroport Valenciennes-Denain

Below you see METARs of the last few days. Select a year to browse through older METARs, from the year 2007 onwards.

November 29, 2022

Time Code Weather Temp. Visibility Ceiling Wind METAR/SPECI
21:30
L
5 °C 700 m - 210° 210° 3 kt METAR LFQQ 292030Z AUTO 21003KT 160V230 0800 0700 R26/0900N R08/0800D FG VV/// 05/05 Q1022 TEMPO 0300
21:00
L
5 °C 750 m - 210° 210° 5 kt METAR LFQQ 292000Z AUTO 21005KT 0750 R26/1000U R08/0900N FG VV/// 05/05 Q1022 TEMPO 0300
20:30
L
5 °C 700 m - 210° 210° 4 kt METAR LFQQ 291930Z AUTO 21004KT 0800 0700 R26/1400U R08/0900D FG VV/// 05/05 Q1022 TEMPO 0300
20:00
L
5 °C 750 m - Var Var 2 kt METAR LFQQ 291900Z AUTO VRB02KT 0750 R26/1000U R08/0900N FG VV/// 05/05 Q1022 TEMPO 0300
19:30
L
5 °C 750 m - 170° 170° 5 kt METAR LFQQ 291830Z AUTO 17005KT 0800 0750 R26/1000D R08/0900U FG VV/// 05/05 Q1022 TEMPO 0300
19:00
L
5 °C 700 m - 160° 160° 3 kt METAR LFQQ 291800Z AUTO 16003KT 120V190 0800 0700 R26/1000N R08/0900N FG VV/// 05/05 Q1021 TEMPO 0300
18:30
L
5 °C 700 m - 180° 180° 4 kt METAR LFQQ 291730Z AUTO 18004KT 0700 R26/0900N R08/0800N FG VV/// 05/05 Q1021 TEMPO 0300
18:00
L
5 °C 550 m - 180° 180° 3 kt METAR LFQQ 291700Z AUTO 18003KT 140V210 0600 0550 R26/0800N R08/0650N FG VV/// 05/05 Q1021 TEMPO 0300
17:30
L
5 °C 500 m - Var Var 2 kt METAR LFQQ 291630Z AUTO VRB02KT 0550 0500 R26/0650N R08/0550N FG VV/// 05/05 Q1021 TEMPO 0300
17:00
L
5 °C 550 m - 120° 120° 3 kt METAR LFQQ 291600Z AUTO 12003KT 090V160 0600 0550 R26/0700N R08/0700N FG VV/// 05/05 Q1021 TEMPO 0300
16:30
L
5 °C 400 m - 140° 140° 4 kt METAR LFQQ 291530Z AUTO 14004KT 0450 0400 R26/0550N R08/0550N FG VV/// 05/05 Q1021 TEMPO 0300
16:00
L
5 °C 350 m - 110° 110° 4 kt METAR LFQQ 291500Z AUTO 11004KT 0400 0350 R26/0500D R08/0450N FG VV/// 05/05 Q1020 TEMPO 0300
15:30
L
6 °C 350 m - 120° 120° 3 kt METAR LFQQ 291430Z AUTO 12003KT 080V150 0350 R26/0450N R08/0400N FG VV/// 06/06 Q1020 NOSIG
15:00
L
6 °C 350 m - 100° 100° 4 kt METAR LFQQ 291400Z AUTO 10004KT 0350 R26/0450N R08/0400N FG VV/// 06/06 Q1020 TEMPO 1500 BR
14:30
L
6 °C 300 m - Var Var 2 kt METAR LFQQ 291330Z AUTO VRB02KT 0300 R26/0400N R08/0350N FG VV/// 06/06 Q1020 TEMPO 1500 BR
14:00
L
5 °C 250 m - Var Var 3 kt METAR LFQQ 291300Z AUTO VRB03KT 0300 0250 R26/0400N R08/0350N FG VV/// 05/05 Q1020 TEMPO 1500 BR
13:30
L
5 °C 300 m - Var Var 2 kt METAR LFQQ 291230Z AUTO VRB02KT 0350 0300 R26/0450D R08/0375N FG VV/// 05/05 Q1020 TEMPO 1500 BR
13:00
L
5 °C 350 m - 210° 210° 4 kt METAR LFQQ 291200Z AUTO 21004KT 160V240 0350 R26/0650U R08/0450N FG VV/// 05/05 Q1020 NOSIG
12:30
L
5 °C 400 m - 190° 190° 4 kt METAR LFQQ 291130Z AUTO 19004KT 0400 R26/0600U R08/0500D FG VV/// 05/05 Q1020 TEMPO 0300
12:00
L
5 °C 350 m - 190° 190° 3 kt METAR LFQQ 291100Z AUTO 19003KT 0350 R26/0550N R08/0400N FG VV/// 05/05 Q1020 TEMPO 1500 BR
11:30
L
4 °C 250 m - 190° 190° 3 kt METAR LFQQ 291030Z AUTO 19003KT 0300 0250 R26/0325N R08/0350N FG VV/// 04/04 Q1020 TEMPO 1500 BR
11:00
L
2 °C 300 m - 150° 150° 3 kt METAR LFQQ 291000Z AUTO 15003KT 120V230 0300 R26/0400N R08/0375N FG VV/// 02/02 Q1019 NOSIG
10:30
L
2 °C 250 m - 120° 120° 5 kt METAR LFQQ 290930Z AUTO 12005KT 090V150 0300 0250 R26/0375N R08/0350N FG VV/// 02/02 Q1019 NOSIG
10:00
L
2 °C 200 m - 150° 150° 4 kt METAR LFQQ 290900Z AUTO 15004KT 0250 0200 R26/0250N R08/0250N FG VV/// 02/02 Q1019 NOSIG
09:30
L
2 °C 150 m - Var Var 3 kt METAR LFQQ 290830Z AUTO VRB03KT 0200 0150 R26/0250N R08/0200N FG VV/// 02/02 Q1018 TEMPO 0350 FG
09:00
L
2 °C 250 m - 240° 240° 3 kt METAR LFQQ 290800Z AUTO 24003KT 0300 0250 R26/0350N R08/0275N FG VV/// 02/02 Q1018 TEMPO 0500 FG
08:30
L
1 °C 300 m - Var Var 2 kt METAR LFQQ 290730Z AUTO VRB02KT 0300 R26/0350N R08/0375N FG VV/// 01/01 Q1018 TEMPO 0500 FG
08:00
L
1 °C 400 m - Var Var 2 kt METAR LFQQ 290700Z AUTO VRB02KT 0400 R26/0550N R08/0450U FG VV/// 01/01 Q1017 NOSIG
07:30
L
1 °C 350 m - 120° 120° 2 kt METAR LFQQ 290630Z AUTO 12002KT 0400 0350 R26/0500N R08/0400N FG VV/// 01/01 Q1017 NOSIG
07:00
L
1 °C 450 m - 110° 110° 3 kt METAR LFQQ 290600Z AUTO 11003KT 0500 0450 R26/0500N R08/0500D FG VV/// 01/01 Q1017 NOSIG
06:30
L
1 °C 450 m - 080° 080° 2 kt METAR LFQQ 290530Z AUTO 08002KT 0500 0450 R26/0550U R08/0650U FG VV/// 01/01 Q1017 NOSIG
06:00
L
1 °C 350 m - 090° 090° 2 kt METAR LFQQ 290500Z AUTO 09002KT 0450 0350 R26/0750N R08/0400N FG VV/// 01/01 Q1016 NOSIG
05:30
L
1 °C 550 m - 080° 080° 3 kt METAR LFQQ 290430Z AUTO 08003KT 0650 0550 R26/1100D R08/0750N FG VV/// 01/01 Q1016 TEMPO 0500 FG
05:00
L
2 °C 400 m - 060° 060° 1 kt METAR LFQQ 290400Z AUTO 06001KT 0450 0400 R26/0900U R08/0550N FG VV/// 02/02 Q1015 NOSIG
04:30
L
2 °C 650 m - Var 000° 0 kt METAR LFQQ 290330Z AUTO 00000KT 0700 0650 R26/0900U R08/0800U FG VV/// 02/02 Q1015 TEMPO 0500 FG
04:00
L
2 °C 400 m - Var 000° 0 kt METAR LFQQ 290300Z AUTO 00000KT 0550 0400 R26/0375D R08/0350D FG VV/// 02/02 Q1015 NOSIG
03:30
L
2 °C 300 m - 070° 070° 1 kt METAR LFQQ 290230Z AUTO 07001KT 0650 0300 R26/0350N R08/0800N FG VV/// 02/02 Q1015 TEMPO 0500 FG
03:00
L
3 °C 450 m - 160° 160° 1 kt METAR LFQQ 290200Z AUTO 16001KT 0550 0450 R26/0550N R08/0700D FG VV/// 03/03 Q1015 NOSIG
02:30
L
3 °C 400 m - Var Var 2 kt METAR LFQQ 290130Z AUTO VRB02KT 0500 0400 R26/0700N R08/0650U FG VV/// 03/03 Q1014 NOSIG
02:00
L
4 °C 350 m - Var 000° 0 kt METAR LFQQ 290100Z AUTO 00000KT 0400 0350 R26/0550U R08/0400N FG VV/// 04/03 Q1014 NOSIG
01:30
L
4 °C 350 m - Var 000° 0 kt METAR LFQQ 290030Z AUTO 00000KT 0450 0350 R26/0400N R08/0650N FG VV/// 04/04 Q1014 NOSIG
01:00
L
4 °C 350 m - 110° 110° 2 kt METAR LFQQ 290000Z AUTO 11002KT 0500 0350 R26/0800U R08/0650U FG VV/// 04/04 Q1014 NOSIG
00:30
L
5 °C 450 m 400 ft 100° 100° 2 kt METAR LFQQ 282330Z AUTO 10002KT 0500 0450 R26/0550N R08/0500D FG BKN004 05/05 Q1014 TEMPO VV///
00:00
L
5 °C 500 m - Var Var 1 kt METAR LFQQ 282300Z AUTO VRB01KT 0600 0500 R26/0400D R08/0800U FG SCT006 05/05 Q1013 TEMPO VV///

November 28, 2022

Time Code Weather Temp. Visibility Ceiling Wind METAR/SPECI
23:30
L
5 °C 500 m - 110° 110° 2 kt METAR LFQQ 282230Z AUTO 11002KT 0600 0500 R26/0600N R08/0650D FG FEW009 05/05 Q1013 TEMPO VV///
23:00
L
5 °C 600 m - 110° 110° 3 kt METAR LFQQ 282200Z AUTO 11003KT 0650 0600 R26/0750D R08/0750N FG SCT008 05/05 Q1013 TEMPO 0500 FG VV///
22:30
L
6 °C 650 m - Var Var 3 kt METAR LFQQ 282130Z AUTO VRB03KT 1800 0650 R26/0900D R08/2300U BCFG NSC 06/06 Q1013 TEMPO 0500 FG VV///
22:00
L
6 °C 800 m - 120° 120° 3 kt METAR LFQQ 282100Z AUTO 12003KT 4000 0800 R26/2700U R08/P5000 BCFG NSC 06/05 Q1013 BECMG 2000 BR
21:30
M
6 °C 6 km - 140° 140° 3 kt METAR LFQQ 282030Z AUTO 14003KT 6000 NSC 06/06 Q1013 BECMG 2000 BR
21:00
I
7 °C 2.7 km - 150° 150° 2 kt METAR LFQQ 282000Z AUTO 15002KT 9999 2700 NSC 07/06 Q1012 NOSIG
20:30
V
8 °C 10 km+ - 110° 110° 3 kt METAR LFQQ 281930Z AUTO 11003KT 9999 NSC 08/07 Q1012 NOSIG
20:00
V
8 °C 10 km+ - Var Var 2 kt METAR LFQQ 281900Z AUTO VRB02KT 9999 NSC 08/07 Q1012 NOSIG
19:30
V
8 °C 10 km+ - 190° 190° 6 kt METAR LFQQ 281830Z AUTO 19006KT 9999 FEW042 SCT062 08/07 Q1012 NOSIG
19:00
V
9 °C 10 km+ 3,300 ft 180° 180° 6 kt METAR LFQQ 281800Z AUTO 18006KT 9999 FEW025 BKN033 OVC045 09/07 Q1012 NOSIG
18:30
V
8 °C 10 km+ 3,100 ft Var Var 1 kt METAR LFQQ 281730Z AUTO VRB01KT 9999 SCT024 BKN031 08/07 Q1012 NOSIG
18:00
M
8 °C 10 km+ 2,200 ft 170° 170° 4 kt METAR LFQQ 281700Z AUTO 17004KT 9999 BKN022 BKN220 08/07 Q1012 NOSIG
17:30
M
9 °C 10 km+ 2,400 ft 170° 170° 6 kt METAR LFQQ 281630Z AUTO 17006KT 9999 BKN024 09/07 Q1011 NOSIG
17:00
M
10 °C 10 km+ 2,000 ft 170° 170° 6 kt METAR LFQQ 281600Z AUTO 17006KT 9999 BKN020 BKN026 OVC048 10/08 Q1011 NOSIG
16:30
M
10 °C 10 km+ 1,900 ft 180° 180° 6 kt METAR LFQQ 281530Z AUTO 18006KT 9999 BKN019 BKN040 BKN050 10/08 Q1011 NOSIG
16:00
M
11 °C 10 km+ 1,600 ft 190° 190° 7 kt METAR LFQQ 281500Z AUTO 19007KT 9999 BKN016 11/08 Q1011 NOSIG
15:30
M
11 °C 10 km+ 1,400 ft 190° 190° 7 kt METAR LFQQ 281430Z AUTO 19007KT 9999 OVC014 11/08 Q1011 BECMG SCT010 BKN180
15:00
M
11 °C 10 km+ 1,100 ft 170° 170° 7 kt METAR LFQQ 281400Z AUTO 17007KT 9999 BKN011 BKN058 11/09 Q1010 BECMG SCT010 BKN180
14:30
V
11 °C 10 km+ 5,400 ft 170° 170° 5 kt METAR LFQQ 281330Z AUTO 17005KT 9999 SCT011 BKN054 11/09 Q1010 NOSIG
14:00
V
11 °C 10 km+ 18,000 ft 200° 200° 7 kt METAR LFQQ 281300Z AUTO 20007KT 9999 SCT012 SCT054 BKN180 11/09 Q1010 TEMPO BKN007
13:30
M
11 °C 10 km+ 1,100 ft 210° 210° 7 kt METAR LFQQ 281230Z AUTO 21007KT 9999 BKN011 OVC180 11/09 Q1010 BECMG SCT010 BKN180
13:00
I
11 °C 10 km+ 900 ft 220° 220° 6 kt METAR LFQQ 281200Z AUTO 22006KT 180V240 9999 BKN009 OVC180 11/09 Q1010 NOSIG
12:30
V
10 °C 10 km+ 18,000 ft 200° 200° 5 kt METAR LFQQ 281130Z AUTO 20005KT 9999 FEW007 BKN180 10/09 Q1010 NOSIG
12:00
V
10 °C 10 km+ 18,000 ft 220° 220° 6 kt METAR LFQQ 281100Z AUTO 22006KT 190V250 9999 FEW006 OVC180 10/09 Q1010 TEMPO OVC007
11:30
I
9 °C 9 km 500 ft 210° 210° 5 kt METAR LFQQ 281030Z AUTO 21005KT 9000 BKN005 BKN190 09/09 Q1010 BECMG SCT020
11:00
L
9 °C 6 km 400 ft 200° 200° 3 kt METAR LFQQ 281000Z AUTO 20003KT 6000 BKN004 09/09 Q1010 TEMPO OVC007
10:30
L
9 °C 5 km 300 ft 210° 210° 5 kt METAR LFQQ 280930Z AUTO 21005KT 5000 BR OVC003/// //////TCU 09/09 Q1010 TEMPO OVC007
10:00
L
9 °C 5 km 300 ft 200° 200° 6 kt METAR LFQQ 280900Z AUTO 20006KT 5000 BR OVC003 09/08 Q1010 TEMPO OVC007
09:30
L
8 °C 6 km 300 ft 170° 170° 4 kt METAR LFQQ 280830Z AUTO 17004KT 6000 BKN003 BKN020 OVC043 08/08 Q1010 TEMPO OVC007
09:00
M
8 °C 6 km 4,200 ft 170° 170° 4 kt METAR LFQQ 280800Z AUTO 17004KT 6000 FEW004 BKN042 OVC200 08/07 Q1010 TEMPO OVC003
08:30
M
7 °C 7 km 19,000 ft 200° 200° 3 kt METAR LFQQ 280730Z AUTO 20003KT 7000 FEW004 OVC190 07/07 Q1010 TEMPO OVC003
08:00
V
7 °C 8 km 19,000 ft 190° 190° 4 kt METAR LFQQ 280700Z AUTO 19004KT 8000 FEW005 SCT058 BKN190 07/07 Q1009 TEMPO OVC003
07:30
V
8 °C 10 km+ 5,200 ft 200° 200° 4 kt METAR LFQQ 280630Z AUTO 20004KT 9999 FEW006 BKN052 BKN062 08/08 Q1010 TEMPO OVC003
07:00
V
8 °C 10 km+ 5,600 ft 200° 200° 3 kt METAR LFQQ 280600Z AUTO 20003KT 9999 FEW005 BKN056 BKN066 08/08 Q1009 TEMPO OVC003
06:30
V
8 °C 10 km+ 4,500 ft 190° 190° 6 kt METAR LFQQ 280530Z AUTO 19006KT 9999 SCT004 SCT037 BKN045 08/08 Q1009 TEMPO 2000 BR OVC003
06:00
L
8 °C 10 km+ 400 ft 180° 180° 6 kt METAR LFQQ 280500Z AUTO 18006KT 9999 BKN004 OVC036 08/08 Q1009 TEMPO 2000 BR
05:30
L
8 °C 10 km+ 400 ft 190° 190° 5 kt METAR LFQQ 280430Z AUTO 19005KT 9999 BKN004 BKN015 OVC032 08/08 Q1009 TEMPO BKN007
05:00
L
8 °C 7 km 400 ft 210° 210° 7 kt METAR LFQQ 280400Z AUTO 21007KT 7000 BKN004 BKN008 BKN012 08/08 Q1009 TEMPO BKN007
04:30
M
8 °C 10 km+ 2,200 ft 200° 200° 6 kt METAR LFQQ 280330Z AUTO 20006KT 9999 SCT004 BKN022 BKN028 08/08 Q1009 BECMG BKN007
04:00
V
8 °C 9 km 4,300 ft 200° 200° 7 kt METAR LFQQ 280300Z AUTO 20007KT 9000 -RADZ FEW004 OVC043 08/08 Q1009 BECMG BKN007
03:30
V
8 °C 9 km 4,700 ft 200° 200° 6 kt METAR LFQQ 280230Z AUTO 20006KT 9000 SCT004 SCT027 BKN047 08/08 Q1009 BECMG BKN007
03:00
V
8 °C 8 km 3,400 ft 190° 190° 5 kt METAR LFQQ 280200Z AUTO 19005KT 8000 -DZ SCT005 SCT009 BKN034 08/08 Q1009 TEMPO 3000 BECMG BKN007
02:30
M
8 °C 10 km+ 1,300 ft 210° 210° 6 kt METAR LFQQ 280130Z AUTO 21006KT 9999 -DZ SCT006 BKN013 BKN018 08/08 Q1009 TEMPO 3000 BECMG BKN007
02:00
I
8 °C 10 km+ 700 ft 200° 200° 7 kt METAR LFQQ 280100Z AUTO 20007KT 9999 -RA BKN007 OVC012 08/07 Q1009 TEMPO 3000 OVC004
01:30
I
8 °C 8 km 600 ft 170° 170° 8 kt METAR LFQQ 280030Z AUTO 17008KT 8000 -RA BKN006/// OVC011/// ///TCU 08/07 Q1009 TEMPO 3000 OVC004
01:00
I
8 °C 10 km+ 800 ft 180° 180° 7 kt METAR LFQQ 280000Z AUTO 18007KT 9999 -RA BKN008 OVC013 08/07 Q1009 TEMPO 3000 OVC004
00:30
M
8 °C 10 km+ 1,200 ft 180° 180° 10 kt METAR LFQQ 272330Z AUTO 18010KT 9999 -RA BKN012/// OVC017/// //////TCU 08/07 Q1009 TEMPO 3000 OVC004
00:00
M
8 °C 10 km+ 1,600 ft 180° 180° 10 kt METAR LFQQ 272300Z AUTO 18010KT 9999 -RA FEW009/// BKN016/// OVC023/// //////TCU 08/07 Q1009 TEMPO 3000 OVC004

November 27, 2022

Time Code Weather Temp. Visibility Ceiling Wind METAR/SPECI
23:30
I
8 °C 10 km+ 800 ft 180° 180° 12 kt METAR LFQQ 272230Z AUTO 18012KT 9999 -RA BKN008 BKN014 OVC020 08/07 Q1010 TEMPO 3000 OVC004
23:00
M
9 °C 10 km+ 1,000 ft 190° 190° 12 kt METAR LFQQ 272200Z AUTO 19012KT 9999 -RA BKN010 BKN015 OVC023 09/08 Q1010 BECMG RA
22:30
M
9 °C 10 km+ 2,300 ft 190° 190° 11 kt METAR LFQQ 272130Z AUTO 19011KT 9999 -RA FEW015 OVC023 09/08 Q1010 BECMG RA OVC007
22:00
M
9 °C 10 km+ 2,100 ft 180° 180° 10 kt METAR LFQQ 272100Z AUTO 18010KT 150V210 9999 SCT013 OVC021 09/08 Q1010 BECMG RA OVC007
21:30
M
9 °C 10 km+ 1,400 ft 170° 170° 11 kt METAR LFQQ 272030Z AUTO 17011KT 9999 DZ BKN014/// OVC021/// //////TCU 09/08 Q1010 BECMG RA OVC007
21:00
M
8 °C 10 km+ 1,000 ft 170° 170° 11 kt METAR LFQQ 272000Z AUTO 17011KT 9999 -DZ BKN010 BKN015 OVC020 08/08 Q1010 BECMG RA
20:30
I
8 °C 10 km+ 900 ft 170° 170° 10 kt METAR LFQQ 271930Z AUTO 17010KT 9999 OVC009 08/08 Q1010 BECMG RA
20:00
I
8 °C 10 km+ 700 ft 160° 160° 10 kt METAR LFQQ 271900Z AUTO 16010KT 9999 -RA BKN007 OVC012 08/08 Q1011 BECMG RA
19:30
I
8 °C 10 km+ 800 ft 170° 170° 11 kt METAR LFQQ 271830Z AUTO 17011KT 9999 -RA BKN008 OVC013 08/07 Q1011 BECMG RA
19:00
I
7 °C 10 km+ 700 ft 160° 160° 10 kt METAR LFQQ 271800Z AUTO 16010KT 9999 -RA OVC007/// //////TCU 07/07 Q1012 TEMPO SCT012 BKN020
18:30
I
7 °C 10 km+ 700 ft 170° 170° 11 kt METAR LFQQ 271730Z AUTO 17011KT 9999 -RA OVC007/// ///TCU 07/07 Q1012 TEMPO SCT012 BKN020
18:00
I
7 °C 10 km+ 900 ft 170° 170° 12 kt METAR LFQQ 271700Z AUTO 17012KT 9999 -RA BKN009/// OVC014/// ///TCU 07/06 Q1012 TEMPO RA SCT012 BKN020
17:30
M
7 °C 10 km+ 1,300 ft 170° 170° 10 kt METAR LFQQ 271630Z AUTO 17010KT 9999 -RA OVC013 07/06 Q1013 TEMPO RA SCT012 BKN020
17:00
M
7 °C 10 km+ 1,400 ft 170° 170° 11 kt METAR LFQQ 271600Z AUTO 17011KT 9999 -RA OVC014 07/06 Q1013 BECMG RA
16:30
M
7 °C 10 km+ 1,600 ft 160° 160° 10 kt METAR LFQQ 271530Z AUTO 16010KT 9999 -RA OVC016 07/06 Q1013 BECMG RA BKN012
16:00
M
7 °C 10 km+ 1,700 ft 160° 160° 9 kt METAR LFQQ 271500Z AUTO 16009KT 9999 -RA OVC017 07/07 Q1014 BECMG RA BKN007
15:30
M
7 °C 10 km+ 1,600 ft 160° 160° 10 kt METAR LFQQ 271430Z AUTO 16010KT 9999 -RA FEW010 BKN016 OVC028 07/07 Q1014 BECMG RA BKN007
15:00
M
7 °C 10 km+ 1,500 ft 160° 160° 11 kt METAR LFQQ 271400Z AUTO 16011KT 9999 -DZ FEW009 BKN015 OVC024 07/07 Q1014 BECMG RA BKN007
14:30
I
7 °C 10 km+ 900 ft 160° 160° 11 kt METAR LFQQ 271330Z AUTO 16011KT 9999 DZ BKN009 OVC014 07/06 Q1015 BECMG RA
14:00
M
7 °C 10 km+ 1,000 ft 160° 160° 9 kt METAR LFQQ 271300Z AUTO 16009KT 9999 BKN010 OVC015 07/07 Q1015 BECMG RA
13:30
I
7 °C 8 km 800 ft 170° 170° 7 kt METAR LFQQ 271230Z AUTO 17007KT 8000 -RA BKN008 OVC015 07/07 Q1016 BECMG RA
13:00
I
7 °C 7 km 600 ft 160° 160° 9 kt METAR LFQQ 271200Z AUTO 16009KT 7000 -RA BKN006 OVC016 07/06 Q1016 BECMG RA
12:30
I
7 °C 4.3 km 500 ft 160° 160° 10 kt METAR LFQQ 271130Z AUTO 16010KT 4300 -RA BR BKN005 OVC012 07/06 Q1017 TEMPO 2000
12:00
I
7 °C 10 km+ 800 ft 160° 160° 11 kt METAR LFQQ 271100Z AUTO 16011KT 9999 -DZ BKN008 BKN012 OVC020 07/06 Q1017 TEMPO 2000 OVC004
11:30
I
6 °C 7 km 700 ft 160° 160° 10 kt METAR LFQQ 271030Z AUTO 16010KT 7000 -DZ BKN007 OVC023 06/06 Q1018 TEMPO 2000 OVC004
11:00
I
6 °C 10 km+ 700 ft 150° 150° 10 kt METAR LFQQ 271000Z AUTO 15010KT 9999 -RA BKN007 OVC025 06/06 Q1018 BECMG 4000 RA

We and third parties follow your internet behavior on our website with cookies. If you continue, we assume you agree with our cookie policy.